sensor_id;sensor_type;location;lat;lon;timestamp;pressure;altitude;pressure_sealevel;temperature;humidity
5350;BME280;2697;42.144;24.794;2023-03-19T00:00:00;153641.63;;;4.17;89.38
5350;BME280;2697;42.144;24.794;2023-03-19T00:02:26;153629.84;;;4.13;90.01
5350;BME280;2697;42.144;24.794;2023-03-19T00:04:51;153688.78;;;4.36;89.15
5350;BME280;2697;42.144;24.794;2023-03-19T00:07:16;153743.84;;;4.57;88.38
5350;BME280;2697;42.144;24.794;2023-03-19T00:09:43;153720.25;;;4.48;88.58
5350;BME280;2697;42.144;24.794;2023-03-19T00:12:09;153733.31;;;4.53;88.37
5350;BME280;2697;42.144;24.794;2023-03-19T00:14:35;153756.91;;;4.62;87.57
5350;BME280;2697;42.144;24.794;2023-03-19T00:17:00;153749.06;;;4.59;88.62
5350;BME280;2697;42.144;24.794;2023-03-19T00:19:26;153725.47;;;4.50;88.46
5350;BME280;2697;42.144;24.794;2023-03-19T00:21:51;153707.13;;;4.43;89.49
5350;BME280;2697;42.144;24.794;2023-03-19T00:24:17;153688.78;;;4.36;89.69
5350;BME280;2697;42.144;24.794;2023-03-19T00:26:43;153657.34;;;4.23;90.25
5350;BME280;2697;42.144;24.794;2023-03-19T00:29:09;153640.31;;;4.17;90.75
5350;BME280;2697;42.144;24.794;2023-03-19T00:31:34;153610.19;;;4.05;90.95
5350;BME280;2697;42.144;24.794;2023-03-19T00:34:00;153589.25;;;3.97;92.31
5350;BME280;2697;42.144;24.794;2023-03-19T00:36:26;153578.78;;;3.93;92.24
5350;BME280;2697;42.144;24.794;2023-03-19T00:38:53;153555.22;;;3.84;92.86
5350;BME280;2697;42.144;24.794;2023-03-19T00:41:18;153518.53;;;3.69;92.80
5350;BME280;2697;42.144;24.794;2023-03-19T00:43:45;153539.47;;;3.78;92.83
5350;BME280;2697;42.144;24.794;2023-03-19T00:46:11;153523.75;;;3.71;94.04
5350;BME280;2697;42.144;24.794;2023-03-19T00:48:36;153506.78;;;3.65;94.18
5350;BME280;2697;42.144;24.794;2023-03-19T00:51:06;153506.78;;;3.65;93.71
5350;BME280;2697;42.144;24.794;2023-03-19T00:53:35;153521.16;;;3.70;93.82
5350;BME280;2697;42.144;24.794;2023-03-19T00:56:01;153525.06;;;3.72;94.44
5350;BME280;2697;42.144;24.794;2023-03-19T00:58:26;153530.34;;;3.74;93.61
5350;BME280;2697;42.144;24.794;2023-03-19T01:00:53;153542.09;;;3.79;93.42
5350;BME280;2697;42.144;24.794;2023-03-19T01:03:18;153521.16;;;3.70;93.95
5350;BME280;2697;42.144;24.794;2023-03-19T01:05:47;153526.41;;;3.72;93.44
5350;BME280;2697;42.144;24.794;2023-03-19T01:08:14;153484.50;;;3.56;94.12
5350;BME280;2697;42.144;24.794;2023-03-19T01:10:39;153481.91;;;3.55;94.67
5350;BME280;2697;42.144;24.794;2023-03-19T01:13:05;153474.00;;;3.52;93.96
5350;BME280;2697;42.144;24.794;2023-03-19T01:15:34;153468.78;;;3.50;94.51
5350;BME280;2697;42.144;24.794;2023-03-19T01:18:00;153502.84;;;3.63;93.13
5350;BME280;2697;42.144;24.794;2023-03-19T01:20:25;153517.22;;;3.69;93.24
5350;BME280;2697;42.144;24.794;2023-03-19T01:22:52;153527.72;;;3.73;92.68
5350;BME280;2697;42.144;24.794;2023-03-19T01:25:17;153576.16;;;3.92;91.97
5350;BME280;2697;42.144;24.794;2023-03-19T01:27:43;153631.16;;;4.13;89.98
5350;BME280;2697;42.144;24.794;2023-03-19T01:30:08;153636.38;;;4.15;89.48
5350;BME280;2697;42.144;24.794;2023-03-19T01:32:34;153690.09;;;4.36;88.29
5350;BME280;2697;42.144;24.794;2023-03-19T01:35:00;153692.69;;;4.37;87.86
5350;BME280;2697;42.144;24.794;2023-03-19T01:37:25;153666.50;;;4.27;88.67
5350;BME280;2697;42.144;24.794;2023-03-19T01:39:51;153653.44;;;4.22;88.51
5350;BME280;2697;42.144;24.794;2023-03-19T01:42:17;153623.31;;;4.10;89.26
5350;BME280;2697;42.144;24.794;2023-03-19T01:44:42;153587.94;;;3.96;89.84
5350;BME280;2697;42.144;24.794;2023-03-19T01:49:55;153576.16;;;3.92;90.27
5350;BME280;2697;42.144;24.794;2023-03-19T01:52:22;153573.56;;;3.91;91.03
5350;BME280;2697;42.144;24.794;2023-03-19T01:54:49;153593.16;;;3.98;89.92
5350;BME280;2697;42.144;24.794;2023-03-19T01:57:17;153628.53;;;4.12;89.81
5350;BME280;2697;42.144;24.794;2023-03-19T01:59:47;153649.50;;;4.20;88.97
5350;BME280;2697;42.144;24.794;2023-03-19T02:04:42;153671.78;;;4.29;88.34
5350;BME280;2697;42.144;24.794;2023-03-19T02:07:09;153645.59;;;4.19;88.13
5350;BME280;2697;42.144;24.794;2023-03-19T02:09:36;153649.50;;;4.20;89.53
5350;BME280;2697;42.144;24.794;2023-03-19T02:12:01;153659.97;;;4.24;88.50
5350;BME280;2697;42.144;24.794;2023-03-19T02:14:27;153684.84;;;4.34;89.55
5350;BME280;2697;42.144;24.794;2023-03-19T02:16:53;153690.09;;;4.36;88.30
5350;BME280;2697;42.144;24.794;2023-03-19T02:19:44;153717.63;;;4.47;87.07
5350;BME280;2697;42.144;24.794;2023-03-19T02:22:15;153734.63;;;4.53;86.82
5350;BME280;2697;42.144;24.794;2023-03-19T02:27:26;153720.25;;;4.48;86.70
5350;BME280;2697;42.144;24.794;2023-03-19T02:29:51;153728.09;;;4.51;86.69
5350;BME280;2697;42.144;24.794;2023-03-19T02:32:16;153758.22;;;4.63;86.89
5350;BME280;2697;42.144;24.794;2023-03-19T02:34:43;153735.94;;;4.54;86.72
5350;BME280;2697;42.144;24.794;2023-03-19T02:37:21;153741.22;;;4.56;87.33
5350;BME280;2697;42.144;24.794;2023-03-19T02:40:05;153766.09;;;4.66;87.35
5350;BME280;2697;42.144;24.794;2023-03-19T02:42:32;153805.41;;;4.81;85.75
5350;BME280;2697;42.144;24.794;2023-03-19T02:44:57;153880.09;;;5.10;83.22
5350;BME280;2697;42.144;24.794;2023-03-19T02:47:23;153817.22;;;4.85;82.83
5350;BME280;2697;42.144;24.794;2023-03-19T02:49:49;153855.19;;;5.00;83.67
5350;BME280;2697;42.144;24.794;2023-03-19T02:52:16;153843.41;;;4.96;83.96
5350;BME280;2697;42.144;24.794;2023-03-19T02:54:41;153843.41;;;4.96;84.42
5350;BME280;2697;42.144;24.794;2023-03-19T02:57:07;153840.81;;;4.95;84.31
5350;BME280;2697;42.144;24.794;2023-03-19T02:59:33;153822.44;;;4.88;83.84
5350;BME280;2697;42.144;24.794;2023-03-19T03:01:58;153821.13;;;4.87;85.04
5350;BME280;2697;42.144;24.794;2023-03-19T03:04:24;153817.22;;;4.85;84.37
5350;BME280;2697;42.144;24.794;2023-03-19T03:06:50;153869.63;;;5.06;83.74
5350;BME280;2697;42.144;24.794;2023-03-19T03:09:15;153881.41;;;5.10;83.73
5350;BME280;2697;42.144;24.794;2023-03-19T03:11:41;153852.56;;;4.99;84.36
5350;BME280;2697;42.144;24.794;2023-03-19T03:14:07;153865.72;;;5.04;83.75
5350;BME280;2697;42.144;24.794;2023-03-19T03:16:32;153891.91;;;5.14;81.67
5350;BME280;2697;42.144;24.794;2023-03-19T03:18:58;153894.53;;;5.15;81.33
5350;BME280;2697;42.144;24.794;2023-03-19T03:21:24;153886.69;;;5.12;81.02
5350;BME280;2697;42.144;24.794;2023-03-19T03:23:50;153867.00;;;5.05;81.55
5350;BME280;2697;42.144;24.794;2023-03-19T03:26:15;153867.00;;;5.05;81.19
5350;BME280;2697;42.144;24.794;2023-03-19T03:28:41;153867.00;;;5.05;81.75
5350;BME280;2697;42.144;24.794;2023-03-19T03:31:08;153868.31;;;5.05;80.91
5350;BME280;2697;42.144;24.794;2023-03-19T03:33:33;153802.78;;;4.80;82.12
5350;BME280;2697;42.144;24.794;2023-03-19T03:35:59;153869.63;;;5.06;81.45
5350;BME280;2697;42.144;24.794;2023-03-19T03:38:25;153881.41;;;5.10;80.91
5350;BME280;2697;42.144;24.794;2023-03-19T03:40:51;153874.84;;;5.08;81.39
5350;BME280;2697;42.144;24.794;2023-03-19T03:43:18;153813.28;;;4.84;81.91
5350;BME280;2697;42.144;24.794;2023-03-19T03:45:47;153823.75;;;4.88;81.97
5350;BME280;2697;42.144;24.794;2023-03-19T03:48:13;153835.53;;;4.93;82.71
5350;BME280;2697;42.144;24.794;2023-03-19T03:50:39;153855.19;;;5.00;81.71
5350;BME280;2697;42.144;24.794;2023-03-19T03:53:04;153840.81;;;4.95;81.78
5350;BME280;2697;42.144;24.794;2023-03-19T03:55:30;153783.13;;;4.72;83.00
5350;BME280;2697;42.144;24.794;2023-03-19T03:57:56;153783.13;;;4.72;82.46
5350;BME280;2697;42.144;24.794;2023-03-19T04:00:22;153806.69;;;4.81;83.79
5350;BME280;2697;42.144;24.794;2023-03-19T04:02:48;153784.41;;;4.73;83.21
5350;BME280;2697;42.144;24.794;2023-03-19T04:05:14;153764.75;;;4.65;83.58
5350;BME280;2697;42.144;24.794;2023-03-19T04:07:40;153801.47;;;4.79;83.47
5350;BME280;2697;42.144;24.794;2023-03-19T04:10:07;153763.44;;;4.65;83.99
5350;BME280;2697;42.144;24.794;2023-03-19T04:12:33;153759.53;;;4.63;83.94
5350;BME280;2697;42.144;24.794;2023-03-19T04:14:59;153733.31;;;4.53;84.46
5350;BME280;2697;42.144;24.794;2023-03-19T04:17:25;153741.22;;;4.56;83.99
5350;BME280;2697;42.144;24.794;2023-03-19T04:19:50;153775.25;;;4.69;84.15
5350;BME280;2697;42.144;24.794;2023-03-19T04:22:16;153780.50;;;4.71;83.09
5350;BME280;2697;42.144;24.794;2023-03-19T04:24:41;153810.63;;;4.83;82.54
5350;BME280;2697;42.144;24.794;2023-03-19T04:27:07;153801.47;;;4.79;82.69
5350;BME280;2697;42.144;24.794;2023-03-19T04:29:32;153811.94;;;4.83;82.82
5350;BME280;2697;42.144;24.794;2023-03-19T04:31:58;153830.28;;;4.91;81.57
5350;BME280;2697;42.144;24.794;2023-03-19T04:34:23;153823.75;;;4.88;81.85
5350;BME280;2697;42.144;24.794;2023-03-19T04:36:49;153811.94;;;4.83;81.43
5350;BME280;2697;42.144;24.794;2023-03-19T04:39:16;153851.25;;;4.99;81.37
5350;BME280;2697;42.144;24.794;2023-03-19T04:41:41;153859.13;;;5.02;81.64
5350;BME280;2697;42.144;24.794;2023-03-19T04:44:07;153848.66;;;4.98;81.30
5350;BME280;2697;42.144;24.794;2023-03-19T04:46:32;153905.00;;;5.20;79.71
5350;BME280;2697;42.144;24.794;2023-03-19T04:48:58;153914.22;;;5.23;80.68
5350;BME280;2697;42.144;24.794;2023-03-19T04:51:23;153916.81;;;5.24;78.78
5350;BME280;2697;42.144;24.794;2023-03-19T04:53:49;153948.28;;;5.36;79.10
5350;BME280;2697;42.144;24.794;2023-03-19T04:56:14;153945.66;;;5.35;78.56
5350;BME280;2697;42.144;24.794;2023-03-19T04:58:42;153995.47;;;5.55;78.47
5350;BME280;2697;42.144;24.794;2023-03-19T05:01:08;153994.16;;;5.54;78.10
5350;BME280;2697;42.144;24.794;2023-03-19T05:03:33;153992.84;;;5.54;78.62
5350;BME280;2697;42.144;24.794;2023-03-19T05:05:59;153928.59;;;5.29;78.23
5350;BME280;2697;42.144;24.794;2023-03-19T05:08:24;153950.88;;;5.37;78.88
5350;BME280;2697;42.144;24.794;2023-03-19T05:10:50;154006.00;;;5.59;79.21
5350;BME280;2697;42.144;24.794;2023-03-19T05:13:15;154044.00;;;5.73;77.41
5350;BME280;2697;42.144;24.794;2023-03-19T05:15:44;154030.91;;;5.68;77.51
5350;BME280;2697;42.144;24.794;2023-03-19T05:18:10;154066.31;;;5.82;76.36
5350;BME280;2697;42.144;24.794;2023-03-19T05:20:36;154028.25;;;5.67;76.82
5350;BME280;2697;42.144;24.794;2023-03-19T05:23:02;154079.44;;;5.87;75.29
5350;BME280;2697;42.144;24.794;2023-03-19T05:25:27;154037.47;;;5.71;76.29
5350;BME280;2697;42.144;24.794;2023-03-19T05:27:54;154066.31;;;5.82;75.62
5350;BME280;2697;42.144;24.794;2023-03-19T05:30:20;154071.53;;;5.84;75.87
5350;BME280;2697;42.144;24.794;2023-03-19T05:32:46;154116.19;;;6.02;74.94
5350;BME280;2697;42.144;24.794;2023-03-19T05:35:12;154139.81;;;6.11;75.03
5350;BME280;2697;42.144;24.794;2023-03-19T05:37:38;154171.28;;;6.23;74.06
5350;BME280;2697;42.144;24.794;2023-03-19T05:40:04;154197.56;;;6.33;72.49
5350;BME280;2697;42.144;24.794;2023-03-19T05:42:30;154176.56;;;6.25;73.16
5350;BME280;2697;42.144;24.794;2023-03-19T05:44:55;154173.94;;;6.24;73.00
5350;BME280;2697;42.144;24.794;2023-03-19T05:47:21;154234.28;;;6.47;73.27
5350;BME280;2697;42.144;24.794;2023-03-19T05:49:46;154286.78;;;6.68;72.45
5350;BME280;2697;42.144;24.794;2023-03-19T05:52:12;154250.06;;;6.53;70.77
5350;BME280;2697;42.144;24.794;2023-03-19T05:54:37;154307.78;;;6.76;70.35
5350;BME280;2697;42.144;24.794;2023-03-19T05:57:03;154208.03;;;6.37;71.42
5350;BME280;2697;42.144;24.794;2023-03-19T05:59:28;154264.47;;;6.59;71.22
5350;BME280;2697;42.144;24.794;2023-03-19T06:01:54;154307.78;;;6.76;70.36
5350;BME280;2697;42.144;24.794;2023-03-19T06:04:20;154303.84;;;6.74;69.27
5350;BME280;2697;42.144;24.794;2023-03-19T06:06:45;154288.09;;;6.68;69.38
5350;BME280;2697;42.144;24.794;2023-03-19T06:09:11;154240.84;;;6.50;69.44
5350;BME280;2697;42.144;24.794;2023-03-19T06:11:37;154244.81;;;6.51;68.91
5350;BME280;2697;42.144;24.794;2023-03-19T06:14:05;154221.19;;;6.42;69.02
5350;BME280;2697;42.144;24.794;2023-03-19T06:16:31;154231.66;;;6.46;69.95
5350;BME280;2697;42.144;24.794;2023-03-19T06:18:56;154310.41;;;6.77;69.64
5350;BME280;2697;42.144;24.794;2023-03-19T06:21:22;154489.00;;;7.46;68.34
5350;BME280;2697;42.144;24.794;2023-03-19T06:23:49;154690.00;;;8.24;64.97
5350;BME280;2697;42.144;24.794;2023-03-19T06:26:15;154778.13;;;8.58;62.54
5350;BME280;2697;42.144;24.794;2023-03-19T06:28:41;154659.78;;;8.12;62.74
5350;BME280;2697;42.144;24.794;2023-03-19T06:31:06;154541.53;;;7.66;64.21
5350;BME280;2697;42.144;24.794;2023-03-19T06:33:32;154453.50;;;7.32;65.40
5350;BME280;2697;42.144;24.794;2023-03-19T06:35:58;154311.72;;;6.77;68.19
5350;BME280;2697;42.144;24.794;2023-03-19T06:38:23;154285.47;;;6.67;69.18
5350;BME280;2697;42.144;24.794;2023-03-19T06:40:48;154297.31;;;6.72;69.87
5350;BME280;2697;42.144;24.794;2023-03-19T06:43:14;154336.66;;;6.87;69.10
5350;BME280;2697;42.144;24.794;2023-03-19T06:45:40;154331.41;;;6.85;68.75
5350;BME280;2697;42.144;24.794;2023-03-19T06:48:05;154383.91;;;7.05;67.94
5350;BME280;2697;42.144;24.794;2023-03-19T06:50:30;154412.84;;;7.17;67.71
5350;BME280;2697;42.144;24.794;2023-03-19T06:52:56;154406.25;;;7.14;67.41
5350;BME280;2697;42.144;24.794;2023-03-19T06:55:22;154339.28;;;6.88;67.91
5350;BME280;2697;42.144;24.794;2023-03-19T06:57:48;154398.38;;;7.11;68.12
5350;BME280;2697;42.144;24.794;2023-03-19T07:00:15;154436.44;;;7.26;67.80
5350;BME280;2697;42.144;24.794;2023-03-19T07:02:41;154478.47;;;7.42;67.38
5350;BME280;2697;42.144;24.794;2023-03-19T07:05:07;154507.34;;;7.53;67.32
5350;BME280;2697;42.144;24.794;2023-03-19T07:07:32;154570.44;;;7.78;67.14
5350;BME280;2697;42.144;24.794;2023-03-19T07:09:58;154619.03;;;7.96;66.04
5350;BME280;2697;42.144;24.794;2023-03-19T07:12:24;154659.78;;;8.12;65.97
5350;BME280;2697;42.144;24.794;2023-03-19T07:14:52;154659.78;;;8.12;65.47
5350;BME280;2697;42.144;24.794;2023-03-19T07:17:19;154696.56;;;8.26;64.95
5350;BME280;2697;42.144;24.794;2023-03-19T07:19:44;154772.84;;;8.56;64.76
5350;BME280;2697;42.144;24.794;2023-03-19T07:22:10;154734.75;;;8.41;63.83
5350;BME280;2697;42.144;24.794;2023-03-19T07:24:35;154778.13;;;8.58;64.08
5350;BME280;2697;42.144;24.794;2023-03-19T07:27:01;154811.00;;;8.71;63.65
5350;BME280;2697;42.144;24.794;2023-03-19T07:29:27;154845.16;;;8.84;62.71
5350;BME280;2697;42.144;24.794;2023-03-19T07:31:52;154867.50;;;8.93;62.17
5350;BME280;2697;42.144;24.794;2023-03-19T07:34:18;154887.25;;;9.00;61.67
5350;BME280;2697;42.144;24.794;2023-03-19T07:36:43;154963.53;;;9.30;61.64
5350;BME280;2697;42.144;24.794;2023-03-19T07:39:08;155009.56;;;9.48;60.76
5350;BME280;2697;42.144;24.794;2023-03-19T07:41:34;155028.00;;;9.55;60.34
5350;BME280;2697;42.144;24.794;2023-03-19T07:43:59;155030.63;;;9.56;59.52
5350;BME280;2697;42.144;24.794;2023-03-19T07:46:25;155076.69;;;9.74;60.47
5350;BME280;2697;42.144;24.794;2023-03-19T07:48:50;155105.63;;;9.85;58.64
5350;BME280;2697;42.144;24.794;2023-03-19T07:51:16;155128.00;;;9.93;58.27
5350;BME280;2697;42.144;24.794;2023-03-19T07:53:42;155133.25;;;9.95;57.74
5350;BME280;2697;42.144;24.794;2023-03-19T07:56:07;155162.25;;;10.07;57.32
5350;BME280;2697;42.144;24.794;2023-03-19T07:58:33;155193.81;;;10.19;56.60
5350;BME280;2697;42.144;24.794;2023-03-19T08:00:58;155217.56;;;10.28;56.51
5350;BME280;2697;42.144;24.794;2023-03-19T08:03:23;155254.47;;;10.42;55.43
5350;BME280;2697;42.144;24.794;2023-03-19T08:05:49;155272.84;;;10.49;55.02
5350;BME280;2697;42.144;24.794;2023-03-19T08:08:15;155301.81;;;10.61;54.73
5350;BME280;2697;42.144;24.794;2023-03-19T08:10:41;155326.88;;;10.70;55.06
5350;BME280;2697;42.144;24.794;2023-03-19T08:13:07;155359.78;;;10.83;55.47
5350;BME280;2697;42.144;24.794;2023-03-19T08:15:32;155401.94;;;10.99;54.25
5350;BME280;2697;42.144;24.794;2023-03-19T08:18:02;155438.81;;;11.13;54.32
5350;BME280;2697;42.144;24.794;2023-03-19T08:20:28;155470.41;;;11.26;54.46
5350;BME280;2697;42.144;24.794;2023-03-19T08:22:54;155517.84;;;11.44;53.05
5350;BME280;2697;42.144;24.794;2023-03-19T08:25:20;155546.88;;;11.55;52.84
5350;BME280;2697;42.144;24.794;2023-03-19T08:27:46;155562.66;;;11.61;50.71
5350;BME280;2697;42.144;24.794;2023-03-19T08:30:12;155608.78;;;11.79;51.60
5350;BME280;2697;42.144;24.794;2023-03-19T08:32:38;155660.22;;;11.99;51.03
5350;BME280;2697;42.144;24.794;2023-03-19T08:35:03;155673.44;;;12.04;50.64
5350;BME280;2697;42.144;24.794;2023-03-19T08:37:30;155685.28;;;12.09;49.97
5350;BME280;2697;42.144;24.794;2023-03-19T08:39:55;155689.28;;;12.10;49.72
5350;BME280;2697;42.144;24.794;2023-03-19T08:42:21;155745.94;;;12.32;48.86
5350;BME280;2697;42.144;24.794;2023-03-19T08:44:47;155693.22;;;12.12;48.83
5350;BME280;2697;42.144;24.794;2023-03-19T08:47:12;155742.00;;;12.31;48.70
5350;BME280;2697;42.144;24.794;2023-03-19T08:49:38;155794.75;;;12.51;48.79
5350;BME280;2697;42.144;24.794;2023-03-19T08:52:03;155836.94;;;12.67;47.26
5350;BME280;2697;42.144;24.794;2023-03-19T08:54:29;155823.75;;;12.62;46.67
5350;BME280;2697;42.144;24.794;2023-03-19T08:56:55;155835.63;;;12.67;46.88
5350;BME280;2697;42.144;24.794;2023-03-19T08:59:20;155836.94;;;12.67;45.98
5350;BME280;2697;42.144;24.794;2023-03-19T09:01:50;155917.41;;;12.98;47.31
5350;BME280;2697;42.144;24.794;2023-03-19T09:04:16;155974.16;;;13.20;46.00
5350;BME280;2697;42.144;24.794;2023-03-19T09:06:41;155971.53;;;13.19;44.99
5350;BME280;2697;42.144;24.794;2023-03-19T09:09:07;155951.69;;;13.11;46.39
5350;BME280;2697;42.144;24.794;2023-03-19T09:11:32;155950.38;;;13.11;46.38
5350;BME280;2697;42.144;24.794;2023-03-19T09:13:58;156019.03;;;13.37;46.32
5350;BME280;2697;42.144;24.794;2023-03-19T09:16:23;156057.34;;;13.52;44.92
5350;BME280;2697;42.144;24.794;2023-03-19T09:18:50;156111.44;;;13.73;44.91
5350;BME280;2697;42.144;24.794;2023-03-19T09:21:15;156073.13;;;13.58;42.91
5350;BME280;2697;42.144;24.794;2023-03-19T09:23:40;156070.50;;;13.57;43.97
5350;BME280;2697;42.144;24.794;2023-03-19T09:26:06;156121.97;;;13.77;43.52
5350;BME280;2697;42.144;24.794;2023-03-19T09:28:31;156164.22;;;13.93;43.10
5350;BME280;2697;42.144;24.794;2023-03-19T09:30:57;156099.56;;;13.68;43.16
5350;BME280;2697;42.144;24.794;2023-03-19T09:33:22;156169.50;;;13.95;43.42
5350;BME280;2697;42.144;24.794;2023-03-19T09:35:49;156111.44;;;13.73;43.51
5350;BME280;2697;42.144;24.794;2023-03-19T09:38:15;156199.91;;;14.07;44.34
5350;BME280;2697;42.144;24.794;2023-03-19T09:40:42;156215.72;;;14.13;43.37
5350;BME280;2697;42.144;24.794;2023-03-19T09:46:21;156225.00;;;14.17;42.88
5350;BME280;2697;42.144;24.794;2023-03-19T09:51:20;156289.66;;;14.42;43.93
5350;BME280;2697;42.144;24.794;2023-03-19T09:53:56;156280.44;;;14.38;43.08
5350;BME280;2697;42.144;24.794;2023-03-19T09:56:23;156267.25;;;14.33;43.66
5350;BME280;2697;42.144;24.794;2023-03-19T09:58:50;156322.75;;;14.54;44.75
5350;BME280;2697;42.144;24.794;2023-03-19T10:01:29;156317.50;;;14.52;45.03
5350;BME280;2697;42.144;24.794;2023-03-19T10:06:47;156285.72;;;14.40;45.96
5350;BME280;2697;42.144;24.794;2023-03-19T10:16:53;156472.03;;;15.12;45.15
5350;BME280;2697;42.144;24.794;2023-03-19T10:19:24;156437.72;;;14.99;45.56
5350;BME280;2697;42.144;24.794;2023-03-19T10:22:02;156501.09;;;15.23;45.16
5350;BME280;2697;42.144;24.794;2023-03-19T10:24:35;156507.69;;;15.26;46.53
5350;BME280;2697;42.144;24.794;2023-03-19T10:27:17;156399.38;;;14.84;47.34
5350;BME280;2697;42.144;24.794;2023-03-19T10:29:43;156421.84;;;14.93;47.20
5350;BME280;2697;42.144;24.794;2023-03-19T10:34:48;156573.78;;;15.51;46.31
5350;BME280;2697;42.144;24.794;2023-03-19T10:37:23;156626.72;;;15.72;45.71
5350;BME280;2697;42.144;24.794;2023-03-19T10:39:51;156653.16;;;15.82;45.97
5350;BME280;2697;42.144;24.794;2023-03-19T10:47:51;156704.75;;;16.02;44.83
5350;BME280;2697;42.144;24.794;2023-03-19T10:50:33;156580.38;;;15.54;45.29
5350;BME280;2697;42.144;24.794;2023-03-19T10:55:59;156755.00;;;16.21;45.92
5350;BME280;2697;42.144;24.794;2023-03-19T10:58:27;156786.72;;;16.33;45.16
5350;BME280;2697;42.144;24.794;2023-03-19T11:00:58;156803.94;;;16.40;45.76
5350;BME280;2697;42.144;24.794;2023-03-19T11:08:35;156859.47;;;16.61;45.68
5350;BME280;2697;42.144;24.794;2023-03-19T11:11:02;156756.31;;;16.21;46.09
5350;BME280;2697;42.144;24.794;2023-03-19T11:13:28;156766.88;;;16.25;46.33
5350;BME280;2697;42.144;24.794;2023-03-19T11:15:56;156777.50;;;16.30;44.86
5350;BME280;2697;42.144;24.794;2023-03-19T11:18:28;156809.22;;;16.42;45.18
5350;BME280;2697;42.144;24.794;2023-03-19T11:21:05;156882.03;;;16.70;45.29
5350;BME280;2697;42.144;24.794;2023-03-19T11:23:38;156859.47;;;16.61;45.89
5350;BME280;2697;42.144;24.794;2023-03-19T11:26:04;156823.78;;;16.47;45.09
5350;BME280;2697;42.144;24.794;2023-03-19T11:28:29;156830.38;;;16.50;45.60
5350;BME280;2697;42.144;24.794;2023-03-19T11:31:09;156798.59;;;16.38;46.19
5350;BME280;2697;42.144;24.794;2023-03-19T11:33:54;156825.09;;;16.48;45.79
5350;BME280;2697;42.144;24.794;2023-03-19T11:43:39;156856.84;;;16.60;45.28
5350;BME280;2697;42.144;24.794;2023-03-19T11:48:16;156826.44;;;16.48;46.15
5350;BME280;2697;42.144;24.794;2023-03-19T11:50:50;156872.72;;;16.66;45.55
5350;BME280;2697;42.144;24.794;2023-03-19T12:04:48;157019.66;;;17.23;44.76
5350;BME280;2697;42.144;24.794;2023-03-19T12:12:41;157010.34;;;17.19;45.51
5350;BME280;2697;42.144;24.794;2023-03-19T12:21:13;156989.19;;;17.11;44.38
5350;BME280;2697;42.144;24.794;2023-03-19T12:29:00;156986.53;;;17.10;43.92
5350;BME280;2697;42.144;24.794;2023-03-19T12:31:29;156997.16;;;17.14;43.79
5350;BME280;2697;42.144;24.794;2023-03-19T12:34:18;157055.38;;;17.36;44.13
5350;BME280;2697;42.144;24.794;2023-03-19T12:39:40;157060.66;;;17.38;44.27
5350;BME280;2697;42.144;24.794;2023-03-19T12:42:09;157122.88;;;17.62;43.51
5350;BME280;2697;42.144;24.794;2023-03-19T12:44:43;157203.69;;;17.93;43.58
5350;BME280;2697;42.144;24.794;2023-03-19T12:47:19;157227.53;;;18.03;43.78
5350;BME280;2697;42.144;24.794;2023-03-19T12:49:50;157244.75;;;18.09;43.38
5350;BME280;2697;42.144;24.794;2023-03-19T12:54:54;157129.50;;;17.65;43.48
5350;BME280;2697;42.144;24.794;2023-03-19T13:00:09;157129.50;;;17.65;43.86
5350;BME280;2697;42.144;24.794;2023-03-19T13:03:12;157170.59;;;17.81;43.55
5350;BME280;2697;42.144;24.794;2023-03-19T13:05:57;157153.38;;;17.74;43.46
5350;BME280;2697;42.144;24.794;2023-03-19T13:09:04;157105.66;;;17.56;43.29
5350;BME280;2697;42.144;24.794;2023-03-19T13:11:41;157104.34;;;17.55;43.30
5350;BME280;2697;42.144;24.794;2023-03-19T13:14:17;157162.66;;;17.78;42.76
5350;BME280;2697;42.144;24.794;2023-03-19T13:19:42;157238.13;;;18.07;42.29
5350;BME280;2697;42.144;24.794;2023-03-19T13:22:14;157252.69;;;18.12;42.65
5350;BME280;2697;42.144;24.794;2023-03-19T13:24:41;157234.13;;;18.05;42.36
5350;BME280;2697;42.144;24.794;2023-03-19T13:27:19;157248.72;;;18.11;42.57
5350;BME280;2697;42.144;24.794;2023-03-19T13:29:59;157277.84;;;18.22;42.68
5350;BME280;2697;42.144;24.794;2023-03-19T13:40:49;157312.31;;;18.35;42.71
5350;BME280;2697;42.144;24.794;2023-03-19T13:43:38;157256.66;;;18.14;43.13
5350;BME280;2697;42.144;24.794;2023-03-19T13:48:48;157267.28;;;18.18;43.21
5350;BME280;2697;42.144;24.794;2023-03-19T13:54:14;157305.66;;;18.33;43.27
5350;BME280;2697;42.144;24.794;2023-03-19T13:57:01;157363.97;;;18.55;42.24
5350;BME280;2697;42.144;24.794;2023-03-19T14:02:03;157377.19;;;18.60;42.02
5350;BME280;2697;42.144;24.794;2023-03-19T14:04:53;157330.81;;;18.42;42.69
5350;BME280;2697;42.144;24.794;2023-03-19T14:07:24;157375.84;;;18.60;42.51
5350;BME280;2697;42.144;24.794;2023-03-19T14:12:37;157451.44;;;18.89;41.63
5350;BME280;2697;42.144;24.794;2023-03-19T14:17:36;157442.16;;;18.85;42.08
5350;BME280;2697;42.144;24.794;2023-03-19T14:23:01;157391.81;;;18.66;42.32
5350;BME280;2697;42.144;24.794;2023-03-19T14:25:55;157375.84;;;18.60;42.60
5350;BME280;2697;42.144;24.794;2023-03-19T14:30:58;157370.56;;;18.58;42.87
5350;BME280;2697;42.144;24.794;2023-03-19T14:33:25;157435.56;;;18.83;42.48
5350;BME280;2697;42.144;24.794;2023-03-19T14:35:55;157432.91;;;18.82;42.08
5350;BME280;2697;42.144;24.794;2023-03-19T14:38:33;157439.53;;;18.84;42.38
5350;BME280;2697;42.144;24.794;2023-03-19T14:41:00;157381.19;;;18.62;42.69
5350;BME280;2697;42.144;24.794;2023-03-19T14:43:57;157326.84;;;18.41;42.71
5350;BME280;2697;42.144;24.794;2023-03-19T14:49:44;157367.94;;;18.57;42.67
5350;BME280;2697;42.144;24.794;2023-03-19T14:52:31;157386.47;;;18.64;42.70
5350;BME280;2697;42.144;24.794;2023-03-19T14:55:01;157423.59;;;18.78;43.31
5350;BME280;2697;42.144;24.794;2023-03-19T14:57:33;157377.19;;;18.60;42.69
5350;BME280;2697;42.144;24.794;2023-03-19T15:00:00;157375.84;;;18.60;43.39
5350;BME280;2697;42.144;24.794;2023-03-19T15:02:33;157330.81;;;18.42;43.72
5350;BME280;2697;42.144;24.794;2023-03-19T15:05:04;157309.66;;;18.34;43.95
5350;BME280;2697;42.144;24.794;2023-03-19T15:07:36;157305.66;;;18.33;43.59
5350;BME280;2697;42.144;24.794;2023-03-19T15:10:07;157283.19;;;18.24;43.96